• Join FlightAware (Why Join?)
  • Login
  • US Flag 
12:04PM EDT


 

Airport Tracker/Info


-or-


 

Live Flight TrackerFlight Track Log ✈ N8663P ✈ 15-Sep-2013 ✈ KBTV - KHZY

Flight Track Log - Related Links

Times and Time Zones

All times are in EDT time to prevent confusion due to time zone crossing. See the N8663P flight status page for this flight to view local times or setup timezone preferences in your user account.

Time Position Orientation Groundspeed Altitude Reporting Facility
EDT Latitude Longitude Course Direction KTS MPH feet Rate Location/Type
02:27PM 44.3842 -73.4349 251° West  Level Estimated
02:28PM 44.3712 -73.4828 249° West  Level FlightAware Approximate
02:29PM 44.3583 -73.5306 249° West  Level FlightAware Approximate
02:29PM 44.3611 -73.4303 249° West 103 119 6,200  Level Boston Center
02:30PM 44.3453 -73.5784 249° West  Level FlightAware Approximate
02:30PM 44.3506 -73.4650 247° West 103 119 6,900  Level Boston Center
02:31PM 44.3306 -73.6252 248° West  Level Estimated
02:31PM 44.3419 -73.4967 249° West 98 113 7,500  Level Boston Center
02:32PM 44.3173 -73.6729 249° West  Level FlightAware Approximate
02:32PM 44.3311 -73.5283 244° Southwest 98 113 8,000  Level Boston Center
02:33PM 44.3041 -73.7205 249° West  Level FlightAware Approximate
02:33PM 44.3203 -73.5658 248° West 98 113 8,100  Level Boston Center
02:34PM 44.2908 -73.7681 249° West  Level FlightAware Approximate
02:34PM 44.3094 -73.6122 252° West 111 128 8,100  Level Boston Center
02:35PM 44.2775 -73.8157 249° West  Level FlightAware Approximate
02:35PM 44.2986 -73.6525 249° West 123 142 8,100  Level Boston Center
02:36PM 44.2858 -73.6986 249° West 129 148 8,100  Level Boston Center
02:37PM 44.2747 -73.7419 250° West 129 148 8,100  Level Boston Center
02:38PM 44.2639 -73.7853 251° West 129 148 8,100  Level Boston Center
02:39PM 44.2508 -73.8311 248° West 129 148 8,100  Level Boston Center
02:40PM 44.2397 -73.8803 253° West 129 148 8,100  Level Boston Center
02:41PM 44.2267 -73.9233 247° West 129 148 8,100  Level Boston Center
02:42PM 44.2178 -73.9694 255° West 129 148 8,100  Level Boston Center
02:43PM 44.2047 -74.0128 247° West 129 148 8,100  Level Boston Center
02:44PM 44.1917 -74.0586 248° West 129 148 8,100  Level Boston Center
02:45PM 44.1783 -74.1047 248° West 129 148 8,100  Level Boston Center
02:46PM 44.1694 -74.1506 255° West 129 148 8,100  Level Boston Center
02:47PM 44.1522 -74.1936 241° Southwest 129 148 8,100  Level Boston Center
02:48PM 44.1408 -74.2425 252° West 129 148 8,100  Level Boston Center
02:49PM 44.1278 -74.2853 247° West 129 148 8,100  Level Boston Center
02:50PM 44.1144 -74.3283 247° West 129 148 8,100  Level Boston Center
02:51PM 44.1033 -74.3742 251° West 129 148 8,100  Level Boston Center
02:52PM 44.0881 -74.4200 245° Southwest 129 148 8,100  Level Boston Center
02:53PM 44.0747 -74.4658 248° West 129 148 8,100  Level Boston Center
02:54PM 44.0633 -74.5117 251° West 129 148 8,200  Climbing Boston Center
02:55PM 44.0522 -74.5575 251° West 129 148 8,200  Level Boston Center
02:56PM 44.0389 -74.6033 248° West 129 148 8,200  Level Boston Center
02:57PM 44.0256 -74.6489 248° West 129 148 8,200  Level Boston Center
02:58PM 44.0142 -74.6975 252° West 129 148 8,200 -60 Level Boston Center
02:59PM 43.9986 -74.7433 245° Southwest 129 148 8,100 -60 Descending Boston Center
03:00PM 43.9831 -74.7858 243° Southwest 129 148 8,100  Level Boston Center
03:01PM 43.9719 -74.8317 251° West 129 148 8,100  Level Boston Center
03:02PM 43.9583 -74.8772 247° West 129 148 8,100  Level Boston Center
03:03PM 43.9447 -74.9228 247° West 129 148 8,100  Level Boston Center
03:04PM 43.9397 -74.9658 261° West 128 147 8,200  Climbing Boston Center
03:04PM 43.9314 -74.9656 179° South 129 148 8,100 -120 Descending Boston Center
03:05PM 43.9178 -75.0111 247° West 129 148 8,100 60 Level Boston Center
03:05PM 43.9261 -75.0172 332° Northwest 128 147 8,200 60 Climbing Boston Center
03:06PM 43.9044 -75.0567 233° Southwest 129 148 8,200  Level Boston Center
03:06PM 43.9125 -75.0600 343° North 128 147 8,200  Level Boston Center
03:07PM 43.8928 -75.1022 237° Southwest 129 148 8,200  Level Boston Center
03:07PM 43.8992 -75.1025 358° North 127 146 8,200  Level Boston Center
03:08PM 43.8794 -75.1478 239° Southwest 129 148 8,200  Level Boston Center
03:08PM 43.8856 -75.1539 324° Northwest 128 147 8,200  Level Boston Center
03:09PM 43.8697 -75.1992 244° Southwest 129 148 8,200  Level Boston Center
03:10PM 43.8519 -75.2417 240° Southwest 129 148 8,200  Level Boston Center
03:10PM 43.8519 -75.2444 270° West 130 150 8,200  Level Boston Center
03:11PM 43.8364 -75.2869 243° Southwest 129 148 8,200  Level Boston Center
03:11PM 43.8383 -75.2928 295° West 130 150 8,200  Level Boston Center
03:12PM 43.8228 -75.3322 241° Southwest 129 148 8,200  Level Boston Center
03:12PM 43.8247 -75.3353 311° West 127 146 8,200  Level Boston Center
03:13PM 43.8092 -75.3747 241° Southwest 129 148 8,200  Level Boston Center
03:13PM 43.8089 -75.3833 267° West 126 145 8,200  Level Boston Center
03:14PM 43.7975 -75.4231 248° West 125 144 8,200  Level Boston Center
03:15PM 43.7836 -75.4714 248° West 127 146 8,200  Level Boston Center
03:16PM 43.7700 -75.5167 247° West 129 148 8,200  Level Boston Center
03:17PM 43.7542 -75.5589 243° Southwest 130 150 8,200  Level Boston Center
03:17PM 43.7564 -75.5561 42° Northeast 129 148 8,200  Level Boston Center
03:17PM 43.7472 -75.5844 246° West 130 150 8,200  Level Boston Center
03:18PM 43.7425 -75.6044 252° West 129 148 8,200  Level Boston Center
03:19PM 43.7333 -75.6356 248° West 132 152 8,200  Level Boston Center
03:20PM 43.7217 -75.6808 250° West 129 148 8,200  Level Boston Center
03:21PM 43.7100 -75.7261 250° West 127 146 8,200  Level Boston Center
03:22PM 43.6939 -75.7742 245° Southwest 126 145 8,200  Level Boston Center
03:23PM 43.6800 -75.8222 248° West 126 145 8,200  Level Boston Center
03:24PM 43.6661 -75.8675 247° West 126 145 8,200  Level Boston Center
03:25PM 43.6547 -75.9069 248° West 126 145 8,200  Level Boston Center
03:26PM 43.6408 -75.9519 247° West 125 144 8,200  Level Boston Center
03:27PM 43.6289 -75.9972 250° West 126 145 8,200  Level Boston Center
03:28PM 43.6131 -76.0394 243° Southwest 123 142 8,200  Level Boston Center
03:29PM 43.5989 -76.0900 249° West 124 143 8,200  Level Boston Center
03:31PM 43.5753 -76.1775 250° West 122 140 8,200  Level Boston Center
03:32PM 43.5611 -76.2225 247° West 126 145 8,200  Level Boston Center
03:33PM 43.5469 -76.2733 249° West 124 143 8,200  Level Boston Center
03:34PM 43.5328 -76.3211 248° West 123 142 8,200  Level Boston Center
03:35PM 43.5147 -76.3658 241° Southwest 124 143 8,200  Level Boston Center
03:36PM 43.5006 -76.4164 249° West 124 143 8,200  Level Boston Center
03:37PM 43.4886 -76.4556 247° West 126 145 8,200  Level Boston Center
03:38PM 43.4747 -76.4947 244° Southwest 121 139 8,200  Level Boston Center
03:39PM 43.4586 -76.5394 244° Southwest 121 139 8,200  Level Boston Center
03:40PM 43.4467 -76.5789 247° West 122 140 8,200 -60 Level Boston Center
03:42PM 43.4231 -76.6392 242° Southwest  Level FlightAware Approximate
03:43PM 43.4081 -76.6919 242° Southwest 125 144 8,100  Level Cleveland Center
03:44PM 43.3897 -76.7458 245° Southwest 128 147 8,100  Level Cleveland Center
03:45PM 43.3772 -76.7908 249° West 127 146 8,100  Level Cleveland Center
03:46PM 43.3681 -76.8269 251° West 125 144 8,100  Level Cleveland Center
03:46PM 43.3636 -76.8336 227° Southwest 124 143 8,100  Level Cleveland Center
03:47PM 43.3553 -76.8731 254° West 128 147 8,100  Level Cleveland Center
03:47PM 43.3500 -76.8794 221° Southwest 127 146 8,100  Level Cleveland Center
03:48PM 43.3383 -76.9211 249° West 129 148 8,100  Level Cleveland Center
03:48PM 43.3367 -76.9250 239° Southwest 128 147 8,100  Level Cleveland Center
03:49PM 43.3253 -76.9700 251° West 124 143 8,100  Level Cleveland Center
03:49PM 43.3208 -76.9758 224° Southwest 122 140 8,100  Level Cleveland Center
03:50PM 43.3139 -77.0078 253° West 120 138 8,100  Level Cleveland Center
03:50PM 43.3083 -77.0206 239° Southwest 124 143 8,100  Level Cleveland Center
03:51PM 43.2994 -77.0506 248° West 123 142 8,100  Level Cleveland Center
03:51PM 43.2928 -77.0658 239° Southwest 124 143 8,100  Level Cleveland Center
03:52PM 43.2847 -77.0961 250° West 126 145 8,100  Level Cleveland Center
03:52PM 43.2797 -77.1094 243° Southwest 125 144 8,100  Level Cleveland Center
03:53PM 43.2706 -77.1386 247° West 126 145 8,100  Level Cleveland Center
03:53PM 43.2661 -77.1536 248° West 126 145 8,100  Level Cleveland Center
03:54PM 43.2575 -77.1875 251° West 129 148 8,100  Level Cleveland Center
03:54PM 43.2511 -77.1986 232° Southwest 129 148 8,100  Level Cleveland Center
03:55PM 43.2406 -77.2325 247° West 129 148 8,100  Level Cleveland Center
03:55PM 43.2358 -77.2433 239° Southwest 129 148 8,100  Level Cleveland Center
03:56PM 43.2256 -77.2808 249° West 131 151 8,100  Level Cleveland Center
03:56PM 43.2214 -77.2878 231° Southwest 129 148 8,100  Level Cleveland Center
03:57PM 43.2106 -77.3264 249° West 130 150 8,100  Level Cleveland Center
03:57PM 43.2039 -77.3419 240° Southwest 129 148 8,100  Level Cleveland Center
03:58PM 43.1978 -77.3722 255° West 128 147 8,100  Level Cleveland Center
03:58PM 43.1906 -77.3861 235° Southwest 127 146 8,100  Level Cleveland Center
03:59PM 43.1833 -77.4150 251° West 127 146 8,100  Level Cleveland Center
03:59PM 43.1764 -77.4311 239° Southwest 128 147 8,100  Level Cleveland Center
04:00PM 43.1706 -77.4608 255° West 130 150 8,100  Level Cleveland Center
04:00PM 43.1628 -77.4758 235° Southwest 128 147 8,100  Level Cleveland Center
04:01PM 43.1558 -77.5061 253° West 128 147 8,100  Level Cleveland Center
04:01PM 43.1478 -77.5208 233° Southwest 129 148 8,100  Level Cleveland Center
04:02PM 43.1414 -77.5489 253° West 128 147 8,100  Level Cleveland Center
04:03PM 43.1311 -77.5747 241° Southwest 129 148 8,100  Level Cleveland Center
04:03PM 43.1264 -77.5942 252° West 128 147 8,100  Level Cleveland Center
04:04PM 43.1169 -77.6186 242° Southwest 127 146 8,100  Level Cleveland Center
04:04PM 43.1142 -77.6344 256° West 126 145 8,100  Level Cleveland Center
04:05PM 43.1031 -77.6622 241° Southwest 126 145 8,100  Level Cleveland Center
04:05PM 43.0989 -77.6825 254° West 126 145 8,100  Level Cleveland Center
04:06PM 43.0892 -77.7067 241° Southwest 126 145 8,100  Level Cleveland Center
04:06PM 43.0844 -77.7250 251° West 128 147 8,100  Level Cleveland Center
04:07PM 43.0719 -77.7500 236° Southwest 129 148 8,100  Level Cleveland Center
04:07PM 43.0675 -77.7697 253° West 128 147 8,100  Level Cleveland Center
04:08PM 43.0569 -77.7928 238° Southwest 127 146 8,100  Level Cleveland Center
04:08PM 43.0528 -77.8119 253° West 125 144 8,100  Level Cleveland Center
04:09PM 43.0392 -77.8431 239° Southwest 124 143 8,100  Level Cleveland Center
04:10PM 43.0228 -77.8853 242° Southwest 124 143 8,100  Level Cleveland Center
04:11PM 43.0047 -77.9275 240° Southwest 128 147 8,100  Level Cleveland Center
04:12PM 42.9886 -77.9708 243° Southwest 129 148 8,100  Level Cleveland Center
04:13PM 42.9717 -78.0142 242° Southwest 130 150 8,100  Level Cleveland Center
04:14PM 42.9508 -78.0661 241° Southwest 132 152 8,100  Level Cleveland Center
04:15PM 42.9328 -78.1106 241° Southwest 129 148 8,100  Level Cleveland Center
04:16PM 42.9131 -78.1547 239° Southwest 129 148 8,100  Level Cleveland Center
04:17PM 42.8967 -78.2003 244° Southwest 129 148 8,100  Level Cleveland Center
04:18PM 42.8794 -78.2442 242° Southwest 127 146 8,100  Level Cleveland Center
04:19PM 42.8642 -78.2842 242° Southwest 125 144 8,100  Level Cleveland Center
04:20PM 42.8469 -78.3258 241° Southwest 122 140 8,100  Level Cleveland Center
04:21PM 42.8297 -78.3717 243° Southwest 129 148 8,100  Level Cleveland Center
04:22PM 42.8136 -78.4161 244° Southwest 128 147 8,100  Level Cleveland Center
04:23PM 42.7964 -78.4603 242° Southwest 129 148 8,100  Level Cleveland Center
04:24PM 42.7778 -78.5072 242° Southwest 134 154 8,100  Level Cleveland Center
04:25PM 42.7600 -78.5519 242° Southwest 130 150 8,100  Level Cleveland Center
04:26PM 42.7431 -78.5936 241° Southwest 133 153 8,100  Level Cleveland Center
04:27PM 42.7247 -78.6386 241° Southwest 133 153 8,100  Level Cleveland Center
04:28PM 42.7061 -78.6842 241° Southwest 132 152 8,100  Level Cleveland Center
04:29PM 42.6878 -78.7286 241° Southwest 131 151 8,100  Level Cleveland Center
04:30PM 42.6678 -78.7739 239° Southwest 132 152 8,100  Level Cleveland Center
04:31PM 42.6503 -78.8150 240° Southwest 125 144 8,100  Level Cleveland Center
04:33PM 42.6328 -78.8572 241° Southwest 121 139 8,100  Level Cleveland Center
04:34PM 42.6122 -78.9000 237° Southwest 128 147 8,100  Level Cleveland Center
04:35PM 42.5944 -78.9397 239° Southwest 130 150 8,100  Level Cleveland Center
04:36PM 42.5758 -78.9814 239° Southwest 126 145 8,100  Level Cleveland Center
04:37PM 42.5561 -79.0247 238° Southwest 127 146 8,100  Level Cleveland Center
04:38PM 42.5358 -79.0675 237° Southwest 131 151 8,100  Level Cleveland Center
04:39PM 42.5183 -79.1083 240° Southwest 124 143 8,100  Level Cleveland Center
04:40PM 42.5003 -79.1503 240° Southwest 123 142 8,100  Level Cleveland Center
04:41PM 42.4814 -79.1950 240° Southwest 132 152 8,100  Level Cleveland Center
04:42PM 42.4653 -79.2347 241° Southwest 129 148 8,100  Level Cleveland Center
04:43PM 42.4478 -79.2806 243° Southwest 132 152 8,200  Climbing Cleveland Center
04:44PM 42.4300 -79.3233 241° Southwest 129 148 8,200  Level Cleveland Center
04:45PM 42.4122 -79.3675 241° Southwest 131 151 8,200  Level Cleveland Center
04:46PM 42.3939 -79.4094 239° Southwest 125 144 8,200  Level Cleveland Center
04:47PM 42.3758 -79.4542 241° Southwest 131 151 8,200  Level Cleveland Center
04:48PM 42.3561 -79.4969 238° Southwest 129 148 8,200  Level Cleveland Center
04:49PM 42.3386 -79.5372 240° Southwest 129 148 8,200  Level Cleveland Center
04:50PM 42.3200 -79.5811 240° Southwest 129 148 8,200  Level Cleveland Center
04:51PM 42.3022 -79.6253 241° Southwest 129 148 8,200  Level Cleveland Center
04:52PM 42.2836 -79.6686 240° Southwest 128 147 8,200  Level Cleveland Center
04:53PM 42.2650 -79.7125 240° Southwest 130 150 8,200  Level Cleveland Center
04:54PM 42.2475 -79.7592 243° Southwest 134 154 8,200  Level Cleveland Center
04:55PM 42.2286 -79.8017 239° Southwest 128 147 8,200  Level Cleveland Center
04:56PM 42.2108 -79.8414 239° Southwest 128 147 8,200 -60 Level Cleveland Center
04:57PM 42.1903 -79.8869 239° Southwest 135 155 8,100 -240 Descending Cleveland Center
04:58PM 42.1694 -79.9372 241° Southwest 145 167 7,800 -420 Descending Cleveland Center
04:59PM 42.1486 -79.9864 240° Southwest 148 170 7,300 -540 Descending Cleveland Center
05:00PM 42.1267 -80.0394 241° Southwest 152 175 6,700 -540 Descending Cleveland Center
05:02PM 42.1028 -80.0908 238° Southwest 156 180 6,200 -300 Descending Cleveland Center
05:03PM 42.0822 -80.1414 241° Southwest 149 171 6,100 -60 Descending Cleveland Center
05:04PM 42.0608 -80.1856 237° Southwest 135 155 6,100  Level Cleveland Center
05:05PM 42.0417 -80.2306 240° Southwest 141 162 6,100  Level Cleveland Center
05:06PM 42.0211 -80.2764 239° Southwest 135 155 6,100  Level Cleveland Center
05:07PM 41.9986 -80.3214 236° Southwest 138 159 6,100 -240 Level Cleveland Center
05:08PM 41.9742 -80.3706 236° Southwest 148 170 5,700 -420 Descending Cleveland Center
05:09PM 41.9458 -80.4178 231° Southwest 155 178 5,300 -360 Descending Cleveland Center
05:10PM 41.9219 -80.4553 229° Southwest 149 171 5,000 -480 Descending Cleveland Center
05:11PM 41.8961 -80.4992 232° Southwest 148 170 4,400 -720 Descending Cleveland Center
05:12PM 41.8631 -80.5503 229° Southwest 151 174 3,600 -720 Descending Cleveland Center
05:13PM 41.8297 -80.5825 216° Southwest 150 173 3,000 -480 Descending Cleveland Center
05:14PM 41.7953 -80.5925 192° South 153 176 2,700 -300 Descending Cleveland Center